sensor_id;sensor_type;location;lat;lon;timestamp;P1;durP1;ratioP1;P2;durP2;ratioP2
74632;SDS011;63139;52.018;8.552;2022-12-18T00:01:22;45.85;;;18.60;;
74632;SDS011;63139;52.018;8.552;2022-12-18T00:03:51;36.35;;;15.23;;
74632;SDS011;63139;52.018;8.552;2022-12-18T00:06:21;34.05;;;15.00;;
74632;SDS011;63139;52.018;8.552;2022-12-18T00:08:50;43.15;;;19.65;;
74632;SDS011;63139;52.018;8.552;2022-12-18T00:11:19;41.88;;;18.67;;
74632;SDS011;63139;52.018;8.552;2022-12-18T00:13:47;39.58;;;16.58;;
74632;SDS011;63139;52.018;8.552;2022-12-18T00:16:16;43.75;;;20.42;;
74632;SDS011;63139;52.018;8.552;2022-12-18T00:18:46;37.20;;;16.65;;
74632;SDS011;63139;52.018;8.552;2022-12-18T00:21:14;38.00;;;16.92;;
74632;SDS011;63139;52.018;8.552;2022-12-18T00:23:43;37.78;;;18.50;;
74632;SDS011;63139;52.018;8.552;2022-12-18T00:26:13;43.90;;;19.05;;
74632;SDS011;63139;52.018;8.552;2022-12-18T00:28:43;43.25;;;15.77;;
74632;SDS011;63139;52.018;8.552;2022-12-18T00:31:12;43.75;;;18.92;;
74632;SDS011;63139;52.018;8.552;2022-12-18T00:33:41;47.33;;;22.90;;
74632;SDS011;63139;52.018;8.552;2022-12-18T00:36:11;39.58;;;18.38;;
74632;SDS011;63139;52.018;8.552;2022-12-18T00:38:40;39.88;;;17.27;;
74632;SDS011;63139;52.018;8.552;2022-12-18T00:41:09;41.70;;;15.02;;
74632;SDS011;63139;52.018;8.552;2022-12-18T00:43:39;41.65;;;17.77;;
74632;SDS011;63139;52.018;8.552;2022-12-18T00:46:06;39.30;;;17.00;;
74632;SDS011;63139;52.018;8.552;2022-12-18T00:48:34;36.92;;;17.00;;
74632;SDS011;63139;52.018;8.552;2022-12-18T00:51:02;40.00;;;19.75;;
74632;SDS011;63139;52.018;8.552;2022-12-18T00:53:30;37.67;;;15.95;;
74632;SDS011;63139;52.018;8.552;2022-12-18T00:55:58;43.28;;;19.17;;
74632;SDS011;63139;52.018;8.552;2022-12-18T00:58:25;45.47;;;20.50;;
74632;SDS011;63139;52.018;8.552;2022-12-18T01:00:54;43.05;;;21.02;;
74632;SDS011;63139;52.018;8.552;2022-12-18T01:03:22;51.08;;;22.73;;
74632;SDS011;63139;52.018;8.552;2022-12-18T01:05:50;44.72;;;21.35;;
74632;SDS011;63139;52.018;8.552;2022-12-18T01:08:18;51.75;;;21.65;;
74632;SDS011;63139;52.018;8.552;2022-12-18T01:10:46;43.92;;;21.17;;
74632;SDS011;63139;52.018;8.552;2022-12-18T01:13:13;49.00;;;23.48;;
74632;SDS011;63139;52.018;8.552;2022-12-18T01:15:47;32.08;;;14.85;;
74632;SDS011;63139;52.018;8.552;2022-12-18T01:18:17;31.65;;;15.02;;
74632;SDS011;63139;52.018;8.552;2022-12-18T01:20:45;37.88;;;15.48;;
74632;SDS011;63139;52.018;8.552;2022-12-18T01:23:12;39.90;;;16.65;;
74632;SDS011;63139;52.018;8.552;2022-12-18T01:25:40;44.42;;;18.60;;
74632;SDS011;63139;52.018;8.552;2022-12-18T01:28:09;31.58;;;14.27;;
74632;SDS011;63139;52.018;8.552;2022-12-18T01:30:37;40.40;;;18.05;;
74632;SDS011;63139;52.018;8.552;2022-12-18T01:33:05;39.72;;;17.27;;
74632;SDS011;63139;52.018;8.552;2022-12-18T01:35:40;35.25;;;14.70;;
74632;SDS011;63139;52.018;8.552;2022-12-18T01:38:08;29.92;;;13.93;;
74632;SDS011;63139;52.018;8.552;2022-12-18T01:40:37;38.25;;;16.45;;
74632;SDS011;63139;52.018;8.552;2022-12-18T01:43:04;36.58;;;15.32;;
74632;SDS011;63139;52.018;8.552;2022-12-18T01:45:32;46.53;;;18.10;;
74632;SDS011;63139;52.018;8.552;2022-12-18T01:48:00;39.22;;;18.33;;
74632;SDS011;63139;52.018;8.552;2022-12-18T01:50:31;32.85;;;15.48;;
74632;SDS011;63139;52.018;8.552;2022-12-18T01:53:05;31.15;;;14.82;;
74632;SDS011;63139;52.018;8.552;2022-12-18T01:55:36;40.45;;;15.93;;
74632;SDS011;63139;52.018;8.552;2022-12-18T01:58:08;36.90;;;17.73;;
74632;SDS011;63139;52.018;8.552;2022-12-18T02:00:36;37.08;;;17.13;;
74632;SDS011;63139;52.018;8.552;2022-12-18T02:03:04;39.80;;;18.27;;
74632;SDS011;63139;52.018;8.552;2022-12-18T02:05:35;37.22;;;16.05;;
74632;SDS011;63139;52.018;8.552;2022-12-18T02:08:10;32.85;;;15.65;;
74632;SDS011;63139;52.018;8.552;2022-12-18T02:10:46;46.08;;;19.33;;
74632;SDS011;63139;52.018;8.552;2022-12-18T02:13:24;32.60;;;13.65;;
74632;SDS011;63139;52.018;8.552;2022-12-18T02:15:58;28.92;;;12.85;;
74632;SDS011;63139;52.018;8.552;2022-12-18T02:18:32;34.90;;;17.33;;
74632;SDS011;63139;52.018;8.552;2022-12-18T02:21:07;39.05;;;16.92;;
74632;SDS011;63139;52.018;8.552;2022-12-18T02:23:45;39.20;;;18.05;;
74632;SDS011;63139;52.018;8.552;2022-12-18T02:26:21;39.08;;;16.77;;
74632;SDS011;63139;52.018;8.552;2022-12-18T02:28:55;28.85;;;13.85;;
74632;SDS011;63139;52.018;8.552;2022-12-18T02:31:30;28.30;;;12.20;;
74632;SDS011;63139;52.018;8.552;2022-12-18T02:34:03;42.30;;;18.60;;
74632;SDS011;63139;52.018;8.552;2022-12-18T02:36:37;34.08;;;13.68;;
74632;SDS011;63139;52.018;8.552;2022-12-18T02:39:09;36.03;;;15.40;;
74632;SDS011;63139;52.018;8.552;2022-12-18T02:41:46;30.20;;;12.30;;
74632;SDS011;63139;52.018;8.552;2022-12-18T02:44:16;42.50;;;17.70;;
74632;SDS011;63139;52.018;8.552;2022-12-18T02:46:44;38.75;;;17.38;;
74632;SDS011;63139;52.018;8.552;2022-12-18T02:49:20;36.88;;;12.98;;
74632;SDS011;63139;52.018;8.552;2022-12-18T02:51:59;33.13;;;13.07;;
74632;SDS011;63139;52.018;8.552;2022-12-18T02:54:37;35.90;;;17.10;;
74632;SDS011;63139;52.018;8.552;2022-12-18T02:57:16;28.77;;;12.45;;
74632;SDS011;63139;52.018;8.552;2022-12-18T02:59:54;33.08;;;14.70;;
74632;SDS011;63139;52.018;8.552;2022-12-18T03:02:28;26.40;;;11.43;;
74632;SDS011;63139;52.018;8.552;2022-12-18T03:05:02;25.08;;;11.75;;
74632;SDS011;63139;52.018;8.552;2022-12-18T03:07:36;28.45;;;12.68;;
74632;SDS011;63139;52.018;8.552;2022-12-18T03:10:11;31.20;;;12.73;;
74632;SDS011;63139;52.018;8.552;2022-12-18T03:12:44;25.40;;;11.32;;
74632;SDS011;63139;52.018;8.552;2022-12-18T03:15:19;29.90;;;13.00;;
74632;SDS011;63139;52.018;8.552;2022-12-18T03:17:57;35.53;;;14.07;;
74632;SDS011;63139;52.018;8.552;2022-12-18T03:20:31;29.52;;;13.43;;
74632;SDS011;63139;52.018;8.552;2022-12-18T03:23:02;31.30;;;11.93;;
74632;SDS011;63139;52.018;8.552;2022-12-18T03:25:34;34.85;;;15.82;;
74632;SDS011;63139;52.018;8.552;2022-12-18T03:28:08;32.33;;;13.82;;
74632;SDS011;63139;52.018;8.552;2022-12-18T03:30:41;28.77;;;12.85;;
74632;SDS011;63139;52.018;8.552;2022-12-18T03:33:13;25.80;;;11.02;;
74632;SDS011;63139;52.018;8.552;2022-12-18T03:35:48;27.15;;;13.05;;
74632;SDS011;63139;52.018;8.552;2022-12-18T03:38:17;26.02;;;11.52;;
74632;SDS011;63139;52.018;8.552;2022-12-18T03:40:51;32.50;;;13.77;;
74632;SDS011;63139;52.018;8.552;2022-12-18T03:43:28;23.15;;;10.90;;
74632;SDS011;63139;52.018;8.552;2022-12-18T03:46:05;22.77;;;10.27;;
74632;SDS011;63139;52.018;8.552;2022-12-18T03:48:36;27.10;;;12.30;;
74632;SDS011;63139;52.018;8.552;2022-12-18T03:51:12;28.88;;;12.15;;
74632;SDS011;63139;52.018;8.552;2022-12-18T03:53:49;30.13;;;13.05;;
74632;SDS011;63139;52.018;8.552;2022-12-18T03:56:29;32.58;;;13.38;;
74632;SDS011;63139;52.018;8.552;2022-12-18T03:59:01;23.75;;;9.48;;
74632;SDS011;63139;52.018;8.552;2022-12-18T04:01:32;26.02;;;10.82;;
74632;SDS011;63139;52.018;8.552;2022-12-18T04:04:03;28.17;;;11.38;;
74632;SDS011;63139;52.018;8.552;2022-12-18T04:06:36;30.70;;;11.95;;
74632;SDS011;63139;52.018;8.552;2022-12-18T04:09:08;30.42;;;11.85;;
74632;SDS011;63139;52.018;8.552;2022-12-18T04:11:39;28.20;;;10.52;;
74632;SDS011;63139;52.018;8.552;2022-12-18T04:14:08;19.80;;;9.45;;
74632;SDS011;63139;52.018;8.552;2022-12-18T04:16:43;24.42;;;11.77;;
74632;SDS011;63139;52.018;8.552;2022-12-18T04:19:14;21.17;;;9.82;;
74632;SDS011;63139;52.018;8.552;2022-12-18T04:21:44;30.20;;;12.82;;
74632;SDS011;63139;52.018;8.552;2022-12-18T04:24:12;25.25;;;10.75;;
74632;SDS011;63139;52.018;8.552;2022-12-18T04:26:49;31.15;;;13.32;;
74632;SDS011;63139;52.018;8.552;2022-12-18T04:29:24;25.95;;;11.70;;
74632;SDS011;63139;52.018;8.552;2022-12-18T04:31:51;23.05;;;10.30;;
74632;SDS011;63139;52.018;8.552;2022-12-18T04:34:21;23.98;;;9.68;;
74632;SDS011;63139;52.018;8.552;2022-12-18T04:36:51;21.80;;;10.07;;
74632;SDS011;63139;52.018;8.552;2022-12-18T04:39:21;23.73;;;10.48;;
74632;SDS011;63139;52.018;8.552;2022-12-18T04:41:52;23.90;;;10.93;;
74632;SDS011;63139;52.018;8.552;2022-12-18T04:44:20;26.67;;;11.80;;
74632;SDS011;63139;52.018;8.552;2022-12-18T04:46:50;25.90;;;10.48;;
74632;SDS011;63139;52.018;8.552;2022-12-18T04:49:18;28.85;;;11.70;;
74632;SDS011;63139;52.018;8.552;2022-12-18T04:51:45;30.52;;;11.70;;
74632;SDS011;63139;52.018;8.552;2022-12-18T04:54:14;25.05;;;11.55;;
74632;SDS011;63139;52.018;8.552;2022-12-18T04:56:42;23.33;;;9.60;;
74632;SDS011;63139;52.018;8.552;2022-12-18T04:59:09;24.45;;;10.82;;
74632;SDS011;63139;52.018;8.552;2022-12-18T05:01:37;23.30;;;10.40;;
74632;SDS011;63139;52.018;8.552;2022-12-18T05:04:06;25.77;;;9.68;;
74632;SDS011;63139;52.018;8.552;2022-12-18T05:06:34;21.33;;;9.77;;
74632;SDS011;63139;52.018;8.552;2022-12-18T05:09:02;29.90;;;11.70;;
74632;SDS011;63139;52.018;8.552;2022-12-18T05:11:31;26.65;;;11.98;;
74632;SDS011;63139;52.018;8.552;2022-12-18T05:13:58;24.55;;;11.13;;
74632;SDS011;63139;52.018;8.552;2022-12-18T05:16:26;26.80;;;11.50;;
74632;SDS011;63139;52.018;8.552;2022-12-18T05:18:54;27.77;;;11.75;;
74632;SDS011;63139;52.018;8.552;2022-12-18T05:21:23;28.85;;;11.20;;
74632;SDS011;63139;52.018;8.552;2022-12-18T05:23:51;23.58;;;9.50;;
74632;SDS011;63139;52.018;8.552;2022-12-18T05:26:18;26.55;;;10.52;;
74632;SDS011;63139;52.018;8.552;2022-12-18T05:28:46;28.30;;;10.98;;
74632;SDS011;63139;52.018;8.552;2022-12-18T05:31:14;24.75;;;9.82;;
74632;SDS011;63139;52.018;8.552;2022-12-18T05:33:42;24.30;;;9.65;;
74632;SDS011;63139;52.018;8.552;2022-12-18T05:36:10;26.48;;;11.93;;
74632;SDS011;63139;52.018;8.552;2022-12-18T05:38:39;21.35;;;9.88;;
74632;SDS011;63139;52.018;8.552;2022-12-18T05:41:07;25.45;;;11.48;;
74632;SDS011;63139;52.018;8.552;2022-12-18T05:43:35;27.17;;;10.77;;
74632;SDS011;63139;52.018;8.552;2022-12-18T05:46:06;21.13;;;9.35;;
74632;SDS011;63139;52.018;8.552;2022-12-18T05:48:35;22.92;;;9.98;;
74632;SDS011;63139;52.018;8.552;2022-12-18T05:51:03;25.92;;;11.88;;
74632;SDS011;63139;52.018;8.552;2022-12-18T05:53:33;20.00;;;9.10;;
74632;SDS011;63139;52.018;8.552;2022-12-18T05:56:05;24.65;;;9.98;;
74632;SDS011;63139;52.018;8.552;2022-12-18T05:58:34;24.80;;;10.45;;
74632;SDS011;63139;52.018;8.552;2022-12-18T06:01:06;22.20;;;8.40;;
74632;SDS011;63139;52.018;8.552;2022-12-18T06:03:35;21.83;;;10.10;;
74632;SDS011;63139;52.018;8.552;2022-12-18T06:06:04;29.70;;;10.75;;
74632;SDS011;63139;52.018;8.552;2022-12-18T06:08:39;25.70;;;11.63;;
74632;SDS011;63139;52.018;8.552;2022-12-18T06:11:13;24.02;;;10.88;;
74632;SDS011;63139;52.018;8.552;2022-12-18T06:13:44;19.40;;;9.25;;
74632;SDS011;63139;52.018;8.552;2022-12-18T06:16:11;27.45;;;10.55;;
74632;SDS011;63139;52.018;8.552;2022-12-18T06:18:39;25.92;;;9.57;;
74632;SDS011;63139;52.018;8.552;2022-12-18T06:21:07;25.90;;;12.07;;
74632;SDS011;63139;52.018;8.552;2022-12-18T06:23:35;22.88;;;9.25;;
74632;SDS011;63139;52.018;8.552;2022-12-18T06:26:04;24.23;;;9.57;;
74632;SDS011;63139;52.018;8.552;2022-12-18T06:28:34;20.98;;;9.32;;
74632;SDS011;63139;52.018;8.552;2022-12-18T06:31:02;26.45;;;11.77;;
74632;SDS011;63139;52.018;8.552;2022-12-18T06:33:31;23.52;;;10.27;;
74632;SDS011;63139;52.018;8.552;2022-12-18T06:35:59;24.55;;;10.32;;
74632;SDS011;63139;52.018;8.552;2022-12-18T06:38:27;23.67;;;9.90;;
74632;SDS011;63139;52.018;8.552;2022-12-18T06:40:55;21.13;;;9.40;;
74632;SDS011;63139;52.018;8.552;2022-12-18T06:43:23;25.10;;;9.88;;
74632;SDS011;63139;52.018;8.552;2022-12-18T06:45:57;27.05;;;10.82;;
74632;SDS011;63139;52.018;8.552;2022-12-18T06:48:26;24.10;;;10.82;;
74632;SDS011;63139;52.018;8.552;2022-12-18T06:50:54;20.85;;;10.23;;
74632;SDS011;63139;52.018;8.552;2022-12-18T06:53:22;25.02;;;11.73;;
74632;SDS011;63139;52.018;8.552;2022-12-18T06:55:49;23.65;;;9.50;;
74632;SDS011;63139;52.018;8.552;2022-12-18T06:58:17;25.85;;;9.95;;
74632;SDS011;63139;52.018;8.552;2022-12-18T07:00:45;17.80;;;8.38;;
74632;SDS011;63139;52.018;8.552;2022-12-18T07:03:14;23.08;;;8.82;;
74632;SDS011;63139;52.018;8.552;2022-12-18T07:05:42;24.67;;;10.32;;
74632;SDS011;63139;52.018;8.552;2022-12-18T07:08:09;19.65;;;8.45;;
74632;SDS011;63139;52.018;8.552;2022-12-18T07:10:40;27.05;;;11.98;;
74632;SDS011;63139;52.018;8.552;2022-12-18T07:13:12;25.70;;;10.88;;
74632;SDS011;63139;52.018;8.552;2022-12-18T07:15:40;24.50;;;10.07;;
74632;SDS011;63139;52.018;8.552;2022-12-18T07:18:09;24.65;;;8.80;;
74632;SDS011;63139;52.018;8.552;2022-12-18T07:20:38;19.67;;;8.43;;
74632;SDS011;63139;52.018;8.552;2022-12-18T07:23:06;22.38;;;8.63;;
74632;SDS011;63139;52.018;8.552;2022-12-18T07:25:33;19.45;;;9.93;;
74632;SDS011;63139;52.018;8.552;2022-12-18T07:28:03;26.38;;;10.05;;
74632;SDS011;63139;52.018;8.552;2022-12-18T07:30:31;21.58;;;9.77;;
74632;SDS011;63139;52.018;8.552;2022-12-18T07:32:59;22.95;;;10.68;;
74632;SDS011;63139;52.018;8.552;2022-12-18T07:35:26;29.15;;;11.77;;
74632;SDS011;63139;52.018;8.552;2022-12-18T07:37:55;28.65;;;10.52;;
74632;SDS011;63139;52.018;8.552;2022-12-18T07:40:23;23.92;;;10.15;;
74632;SDS011;63139;52.018;8.552;2022-12-18T07:42:51;24.92;;;9.73;;
74632;SDS011;63139;52.018;8.552;2022-12-18T07:45:18;24.55;;;9.27;;
74632;SDS011;63139;52.018;8.552;2022-12-18T07:47:46;22.50;;;9.63;;
74632;SDS011;63139;52.018;8.552;2022-12-18T07:50:14;25.63;;;10.93;;
74632;SDS011;63139;52.018;8.552;2022-12-18T07:52:42;24.60;;;11.50;;
74632;SDS011;63139;52.018;8.552;2022-12-18T07:55:11;27.55;;;11.68;;
74632;SDS011;63139;52.018;8.552;2022-12-18T07:57:38;21.40;;;8.90;;
74632;SDS011;63139;52.018;8.552;2022-12-18T08:00:16;28.33;;;11.57;;
74632;SDS011;63139;52.018;8.552;2022-12-18T08:02:46;22.17;;;10.15;;
74632;SDS011;63139;52.018;8.552;2022-12-18T08:05:14;21.40;;;9.55;;
74632;SDS011;63139;52.018;8.552;2022-12-18T08:07:42;22.40;;;9.93;;
74632;SDS011;63139;52.018;8.552;2022-12-18T08:10:11;25.95;;;11.73;;
74632;SDS011;63139;52.018;8.552;2022-12-18T08:12:39;28.75;;;10.57;;
74632;SDS011;63139;52.018;8.552;2022-12-18T08:15:07;30.77;;;13.50;;
74632;SDS011;63139;52.018;8.552;2022-12-18T08:17:35;25.33;;;12.88;;
74632;SDS011;63139;52.018;8.552;2022-12-18T08:20:03;25.77;;;11.07;;
74632;SDS011;63139;52.018;8.552;2022-12-18T08:22:33;25.67;;;10.73;;
74632;SDS011;63139;52.018;8.552;2022-12-18T08:25:04;24.67;;;11.02;;
74632;SDS011;63139;52.018;8.552;2022-12-18T08:27:33;20.42;;;8.95;;
74632;SDS011;63139;52.018;8.552;2022-12-18T08:30:01;24.65;;;10.60;;
74632;SDS011;63139;52.018;8.552;2022-12-18T08:32:29;18.50;;;8.93;;
74632;SDS011;63139;52.018;8.552;2022-12-18T08:34:58;23.13;;;10.35;;
74632;SDS011;63139;52.018;8.552;2022-12-18T08:37:26;25.90;;;10.95;;
74632;SDS011;63139;52.018;8.552;2022-12-18T08:39:54;21.13;;;9.80;;
74632;SDS011;63139;52.018;8.552;2022-12-18T08:42:22;19.95;;;9.40;;
74632;SDS011;63139;52.018;8.552;2022-12-18T08:45:09;26.00;;;10.50;;
74632;SDS011;63139;52.018;8.552;2022-12-18T08:47:37;18.00;;;7.80;;
74632;SDS011;63139;52.018;8.552;2022-12-18T08:50:05;20.35;;;8.88;;
74632;SDS011;63139;52.018;8.552;2022-12-18T08:52:33;22.25;;;10.00;;
74632;SDS011;63139;52.018;8.552;2022-12-18T08:55:00;30.83;;;12.52;;
74632;SDS011;63139;52.018;8.552;2022-12-18T08:57:28;20.45;;;8.85;;
74632;SDS011;63139;52.018;8.552;2022-12-18T08:59:56;21.70;;;9.80;;
74632;SDS011;63139;52.018;8.552;2022-12-18T09:02:25;29.77;;;12.57;;
74632;SDS011;63139;52.018;8.552;2022-12-18T09:04:53;30.25;;;13.10;;
74632;SDS011;63139;52.018;8.552;2022-12-18T09:07:23;25.70;;;10.65;;
74632;SDS011;63139;52.018;8.552;2022-12-18T09:09:50;23.00;;;9.75;;
74632;SDS011;63139;52.018;8.552;2022-12-18T09:12:18;26.65;;;11.88;;
74632;SDS011;63139;52.018;8.552;2022-12-18T09:14:46;25.27;;;11.15;;
74632;SDS011;63139;52.018;8.552;2022-12-18T09:17:13;22.45;;;9.32;;
74632;SDS011;63139;52.018;8.552;2022-12-18T09:19:43;21.88;;;9.00;;
74632;SDS011;63139;52.018;8.552;2022-12-18T09:22:10;24.20;;;10.75;;
74632;SDS011;63139;52.018;8.552;2022-12-18T09:24:38;29.30;;;11.00;;
74632;SDS011;63139;52.018;8.552;2022-12-18T09:27:06;31.25;;;13.57;;
74632;SDS011;63139;52.018;8.552;2022-12-18T09:29:34;31.55;;;14.30;;
74632;SDS011;63139;52.018;8.552;2022-12-18T09:32:01;26.17;;;12.20;;
74632;SDS011;63139;52.018;8.552;2022-12-18T09:34:29;32.00;;;13.20;;
74632;SDS011;63139;52.018;8.552;2022-12-18T09:36:58;25.35;;;11.32;;
74632;SDS011;63139;52.018;8.552;2022-12-18T09:39:26;23.95;;;11.32;;
74632;SDS011;63139;52.018;8.552;2022-12-18T09:41:54;26.92;;;10.30;;
74632;SDS011;63139;52.018;8.552;2022-12-18T09:44:25;23.50;;;11.15;;
74632;SDS011;63139;52.018;8.552;2022-12-18T09:46:59;24.25;;;9.77;;
74632;SDS011;63139;52.018;8.552;2022-12-18T09:49:33;20.77;;;10.18;;
74632;SDS011;63139;52.018;8.552;2022-12-18T09:52:08;23.30;;;10.70;;
74632;SDS011;63139;52.018;8.552;2022-12-18T09:54:39;21.10;;;9.63;;
74632;SDS011;63139;52.018;8.552;2022-12-18T09:57:10;25.50;;;11.60;;
74632;SDS011;63139;52.018;8.552;2022-12-18T09:59:40;21.60;;;10.77;;
74632;SDS011;63139;52.018;8.552;2022-12-18T10:02:15;25.17;;;11.52;;
74632;SDS011;63139;52.018;8.552;2022-12-18T10:04:46;23.42;;;11.25;;
74632;SDS011;63139;52.018;8.552;2022-12-18T10:07:26;29.52;;;11.98;;
74632;SDS011;63139;52.018;8.552;2022-12-18T10:10:04;25.67;;;12.13;;
74632;SDS011;63139;52.018;8.552;2022-12-18T10:12:39;19.88;;;8.85;;
74632;SDS011;63139;52.018;8.552;2022-12-18T10:15:15;24.80;;;11.43;;
74632;SDS011;63139;52.018;8.552;2022-12-18T10:20:24;26.63;;;12.18;;
74632;SDS011;63139;52.018;8.552;2022-12-18T10:22:59;22.33;;;10.85;;
74632;SDS011;63139;52.018;8.552;2022-12-18T10:25:40;20.70;;;10.48;;
74632;SDS011;63139;52.018;8.552;2022-12-18T10:28:19;26.48;;;12.35;;
74632;SDS011;63139;52.018;8.552;2022-12-18T10:30:48;25.48;;;11.02;;
74632;SDS011;63139;52.018;8.552;2022-12-18T10:33:17;20.35;;;9.55;;
74632;SDS011;63139;52.018;8.552;2022-12-18T10:35:46;20.08;;;9.98;;
74632;SDS011;63139;52.018;8.552;2022-12-18T10:38:21;18.80;;;9.65;;
74632;SDS011;63139;52.018;8.552;2022-12-18T10:40:53;16.35;;;8.10;;
74632;SDS011;63139;52.018;8.552;2022-12-18T10:43:24;16.83;;;9.02;;
74632;SDS011;63139;52.018;8.552;2022-12-18T10:48:48;18.55;;;8.63;;
74632;SDS011;63139;52.018;8.552;2022-12-18T10:51:19;15.00;;;7.50;;
74632;SDS011;63139;52.018;8.552;2022-12-18T10:53:54;15.27;;;7.50;;
74632;SDS011;63139;52.018;8.552;2022-12-18T10:56:24;15.43;;;7.53;;
74632;SDS011;63139;52.018;8.552;2022-12-18T10:58:58;20.30;;;8.63;;
74632;SDS011;63139;52.018;8.552;2022-12-18T11:01:27;13.43;;;7.20;;
74632;SDS011;63139;52.018;8.552;2022-12-18T11:03:59;17.45;;;8.35;;
74632;SDS011;63139;52.018;8.552;2022-12-18T11:06:29;15.60;;;7.10;;
74632;SDS011;63139;52.018;8.552;2022-12-18T11:09:00;16.15;;;8.55;;
74632;SDS011;63139;52.018;8.552;2022-12-18T11:11:38;17.95;;;8.20;;
74632;SDS011;63139;52.018;8.552;2022-12-18T11:14:11;20.00;;;9.05;;
74632;SDS011;63139;52.018;8.552;2022-12-18T11:16:46;18.73;;;9.23;;
74632;SDS011;63139;52.018;8.552;2022-12-18T11:19:35;14.48;;;7.72;;
74632;SDS011;63139;52.018;8.552;2022-12-18T11:22:19;14.95;;;7.05;;
74632;SDS011;63139;52.018;8.552;2022-12-18T11:24:57;11.70;;;6.53;;
74632;SDS011;63139;52.018;8.552;2022-12-18T11:27:47;13.18;;;6.57;;
74632;SDS011;63139;52.018;8.552;2022-12-18T11:30:21;13.75;;;6.93;;
74632;SDS011;63139;52.018;8.552;2022-12-18T11:32:51;13.32;;;6.43;;
74632;SDS011;63139;52.018;8.552;2022-12-18T11:35:25;14.70;;;7.53;;
74632;SDS011;63139;52.018;8.552;2022-12-18T11:38:02;13.32;;;7.13;;
74632;SDS011;63139;52.018;8.552;2022-12-18T11:40:40;14.30;;;7.30;;
74632;SDS011;63139;52.018;8.552;2022-12-18T11:43:13;14.57;;;7.97;;
74632;SDS011;63139;52.018;8.552;2022-12-18T11:45:47;14.15;;;7.70;;
74632;SDS011;63139;52.018;8.552;2022-12-18T11:48:21;14.95;;;7.05;;
74632;SDS011;63139;52.018;8.552;2022-12-18T11:50:51;13.05;;;6.82;;
74632;SDS011;63139;52.018;8.552;2022-12-18T11:53:21;14.63;;;7.47;;
74632;SDS011;63139;52.018;8.552;2022-12-18T11:55:54;42.83;;;18.48;;
74632;SDS011;63139;52.018;8.552;2022-12-18T11:58:32;26.98;;;12.63;;
74632;SDS011;63139;52.018;8.552;2022-12-18T12:01:15;19.50;;;9.82;;
74632;SDS011;63139;52.018;8.552;2022-12-18T12:03:53;19.40;;;8.38;;
74632;SDS011;63139;52.018;8.552;2022-12-18T12:06:31;16.67;;;7.88;;
74632;SDS011;63139;52.018;8.552;2022-12-18T12:09:10;18.75;;;8.15;;
74632;SDS011;63139;52.018;8.552;2022-12-18T12:11:54;12.85;;;7.05;;
74632;SDS011;63139;52.018;8.552;2022-12-18T12:14:38;15.05;;;7.47;;
74632;SDS011;63139;52.018;8.552;2022-12-18T12:17:18;15.40;;;7.38;;
74632;SDS011;63139;52.018;8.552;2022-12-18T12:19:57;15.70;;;7.30;;
74632;SDS011;63139;52.018;8.552;2022-12-18T12:22:37;13.43;;;6.95;;
74632;SDS011;63139;52.018;8.552;2022-12-18T12:25:20;16.15;;;7.35;;
74632;SDS011;63139;52.018;8.552;2022-12-18T12:27:58;15.82;;;8.10;;
74632;SDS011;63139;52.018;8.552;2022-12-18T12:30:37;13.63;;;6.97;;
74632;SDS011;63139;52.018;8.552;2022-12-18T12:33:15;13.18;;;6.00;;
74632;SDS011;63139;52.018;8.552;2022-12-18T12:35:56;12.32;;;6.68;;
74632;SDS011;63139;52.018;8.552;2022-12-18T12:41:03;12.68;;;6.40;;
74632;SDS011;63139;52.018;8.552;2022-12-18T12:43:54;12.48;;;6.30;;
74632;SDS011;63139;52.018;8.552;2022-12-18T12:46:24;12.98;;;7.03;;
74632;SDS011;63139;52.018;8.552;2022-12-18T12:48:54;12.88;;;6.57;;
74632;SDS011;63139;52.018;8.552;2022-12-18T12:51:24;17.77;;;8.02;;
74632;SDS011;63139;52.018;8.552;2022-12-18T12:53:56;11.13;;;6.10;;
74632;SDS011;63139;52.018;8.552;2022-12-18T12:56:26;20.10;;;6.50;;
74632;SDS011;63139;52.018;8.552;2022-12-18T12:59:08;15.18;;;7.30;;
74632;SDS011;63139;52.018;8.552;2022-12-18T13:01:48;16.90;;;7.03;;
74632;SDS011;63139;52.018;8.552;2022-12-18T13:04:23;12.70;;;7.10;;
74632;SDS011;63139;52.018;8.552;2022-12-18T13:07:00;14.02;;;6.65;;
74632;SDS011;63139;52.018;8.552;2022-12-18T13:09:33;16.02;;;6.65;;
74632;SDS011;63139;52.018;8.552;2022-12-18T13:12:04;12.48;;;6.22;;
74632;SDS011;63139;52.018;8.552;2022-12-18T13:15:13;11.85;;;6.15;;
74632;SDS011;63139;52.018;8.552;2022-12-18T13:17:49;11.52;;;5.95;;
74632;SDS011;63139;52.018;8.552;2022-12-18T13:20:35;11.52;;;5.50;;
74632;SDS011;63139;52.018;8.552;2022-12-18T13:23:19;11.02;;;5.97;;
74632;SDS011;63139;52.018;8.552;2022-12-18T13:25:58;12.50;;;6.75;;
74632;SDS011;63139;52.018;8.552;2022-12-18T13:34:34;11.32;;;5.57;;
74632;SDS011;63139;52.018;8.552;2022-12-18T13:43:28;11.75;;;5.45;;
74632;SDS011;63139;52.018;8.552;2022-12-18T13:46:21;12.68;;;6.35;;
74632;SDS011;63139;52.018;8.552;2022-12-18T13:48:57;11.20;;;5.70;;
74632;SDS011;63139;52.018;8.552;2022-12-18T13:51:28;11.43;;;5.97;;
74632;SDS011;63139;52.018;8.552;2022-12-18T13:54:00;11.18;;;5.53;;
74632;SDS011;63139;52.018;8.552;2022-12-18T13:56:30;12.68;;;6.60;;
74632;SDS011;63139;52.018;8.552;2022-12-18T13:59:11;11.80;;;6.32;;
74632;SDS011;63139;52.018;8.552;2022-12-18T14:01:44;12.20;;;6.50;;
74632;SDS011;63139;52.018;8.552;2022-12-18T14:04:18;11.02;;;6.15;;
74632;SDS011;63139;52.018;8.552;2022-12-18T14:06:49;12.98;;;6.50;;
74632;SDS011;63139;52.018;8.552;2022-12-18T14:09:20;12.57;;;6.20;;
74632;SDS011;63139;52.018;8.552;2022-12-18T14:11:51;15.32;;;6.55;;
74632;SDS011;63139;52.018;8.552;2022-12-18T14:14:42;14.13;;;6.40;;
74632;SDS011;63139;52.018;8.552;2022-12-18T14:17:15;10.68;;;5.78;;
74632;SDS011;63139;52.018;8.552;2022-12-18T14:19:44;9.88;;;5.40;;
74632;SDS011;63139;52.018;8.552;2022-12-18T14:22:15;10.43;;;5.38;;
74632;SDS011;63139;52.018;8.552;2022-12-18T14:24:45;13.05;;;5.72;;
74632;SDS011;63139;52.018;8.552;2022-12-18T14:27:20;9.80;;;4.82;;
74632;SDS011;63139;52.018;8.552;2022-12-18T14:29:50;10.38;;;5.10;;
74632;SDS011;63139;52.018;8.552;2022-12-18T14:32:19;13.70;;;6.10;;
74632;SDS011;63139;52.018;8.552;2022-12-18T14:34:48;11.73;;;6.30;;
74632;SDS011;63139;52.018;8.552;2022-12-18T14:37:18;11.23;;;5.70;;
74632;SDS011;63139;52.018;8.552;2022-12-18T14:39:52;11.32;;;5.78;;
74632;SDS011;63139;52.018;8.552;2022-12-18T14:42:21;12.68;;;6.03;;
74632;SDS011;63139;52.018;8.552;2022-12-18T14:44:49;10.10;;;5.57;;
74632;SDS011;63139;52.018;8.552;2022-12-18T14:47:38;9.23;;;5.22;;
74632;SDS011;63139;52.018;8.552;2022-12-18T14:50:11;9.70;;;5.00;;
74632;SDS011;63139;52.018;8.552;2022-12-18T14:52:40;9.73;;;5.05;;
74632;SDS011;63139;52.018;8.552;2022-12-18T14:55:14;10.40;;;6.00;;
74632;SDS011;63139;52.018;8.552;2022-12-18T14:57:43;12.07;;;5.65;;
74632;SDS011;63139;52.018;8.552;2022-12-18T15:00:14;10.07;;;5.32;;
74632;SDS011;63139;52.018;8.552;2022-12-18T15:02:46;11.10;;;5.50;;
74632;SDS011;63139;52.018;8.552;2022-12-18T15:05:16;9.52;;;5.43;;
74632;SDS011;63139;52.018;8.552;2022-12-18T15:07:46;11.25;;;5.65;;
74632;SDS011;63139;52.018;8.552;2022-12-18T15:10:17;11.52;;;5.00;;
74632;SDS011;63139;52.018;8.552;2022-12-18T15:12:46;9.02;;;4.95;;
74632;SDS011;63139;52.018;8.552;2022-12-18T15:18:17;9.05;;;4.95;;